Flight Track Log - Related Links

Times and Time Zones

All times are in EDT time to prevent confusion due to time zone crossing. See the N9009Y flight status page for this flight to view local times or setup timezone preferences in your user account.

Time Position Orientation Groundspeed Altitude Reporting Facility
EDT Latitude Longitude Course Direction KTS MPH feet Rate Location/Type
Mon 07:09:50 AM 26.6408 -80.2925 347° North 173 199 4,400  Level Miami Center
Mon 07:10:51 AM 26.6894 -80.3019 350° North 178 205 4,500 49 Climbing Miami Center
Mon 07:11:00 AM 27.4080 -80.5365 340° North  Level FlightAware Approximate
Mon 07:11:52 AM 26.7400 -80.3131 349° North 184 212 4,500  Level Miami Center
Mon 07:12:00 AM 27.4445 -80.5511 340° North  Level FlightAware Approximate
Mon 07:12:52 AM 26.7908 -80.3264 347° North 184 212 4,500  Level Miami Center
Mon 07:13:00 AM 27.4811 -80.5658 340° North  Level FlightAware Approximate
Mon 07:13:53 AM 26.8436 -80.3381 349° North 187 215 4,600  Level Miami Center
Mon 07:14:00 AM 27.5188 -80.5762 347° North  Level FlightAware Approximate
Mon 07:14:54 AM 26.8914 -80.3508 347° North 182 209 4,600  Level Miami Center
Mon 07:15:00 AM 27.5565 -80.5863 347° North  Level FlightAware Approximate
Mon 07:15:55 AM 26.9419 -80.3625 348° North 181 208 4,800  Level Miami Center
Mon 07:16:56 AM 26.9878 -80.3722 349° North 178 205 4,900 197 Climbing Miami Center
Mon 07:17:57 AM 27.0372 -80.3803 352° North 171 197 5,200 344 Climbing Miami Center
Mon 07:18:58 AM 27.0842 -80.3886 351° North 167 192 5,600 344 Climbing Miami Center
Mon 07:19:59 AM 27.1253 -80.3967 350° North 161 185 5,900 446 Climbing Miami Center
Mon 07:20:59 AM 27.1686 -80.4042 351° North 149 171 6,500 298 Climbing Miami Center
Mon 07:22:00 AM 27.2100 -80.4106 352° North 152 175 6,500 49 Level Miami Center
Mon 07:23:01 AM 27.2633 -80.4078 North 182 209 6,600 98 Climbing Miami Center
Mon 07:24:02 AM 27.3158 -80.4125 355° North 181 208 6,700 -49 Climbing Miami Center
Mon 07:25:03 AM 27.3656 -80.4178 355° North 185 213 6,500 -98 Descending Miami Center
Mon 07:26:04 AM 27.4194 -80.4306 348° North 189 217 6,500 -49 Level Miami Center
Mon 07:27:05 AM 27.4728 -80.4444 347° North 189 217 6,400 -49 Descending Miami Center
Mon 07:28:06 AM 27.5225 -80.4528 352° North 188 216 6,400  Level Miami Center
Mon 07:29:07 AM 27.5747 -80.4642 349° North 187 215 6,400 -98 Level Miami Center
Mon 07:30:08 AM 27.6250 -80.4708 353° North 187 215 6,200 -197 Descending Miami Center
Mon 07:31:09 AM 27.6811 -80.4781 353° North 190 219 6,000 -148 Descending Miami Center
Mon 07:32:10 AM 27.7347 -80.4942 345° North 190 219 5,900 -246 Descending Miami Center
Mon 07:33:11 AM 27.7842 -80.5117 343° North 191 220 5,500 -246 Descending Miami Center
Mon 07:34:12 AM 27.8383 -80.5292 344° North 193 222 5,400 -98 Descending Miami Center
Mon 07:35:13 AM 27.8911 -80.5475 343° North 192 221 5,300  Descending Miami Center
Mon 07:36:14 AM 27.9367 -80.5681 338° Northwest 187 215 5,400  Climbing Miami Center
Mon 07:37:15 AM 27.9867 -80.5842 344° North 181 208 5,300  Descending Miami Center
Mon 07:38:16 AM 28.0411 -80.5925 352° North 188 216 5,400 49 Climbing Miami Center
Mon 07:39:17 AM 28.0892 -80.6075 345° North 187 215 5,400  Level Miami Center
Mon 07:40:18 AM 28.1358 -80.6211 346° North 185 213 5,400 49 Level Miami Center
Mon 07:41:19 AM 28.1817 -80.6414 339° North 183 211 5,500 51 Climbing Miami Center
Mon 07:42:15 AM 28.2333 -80.6667 337° Northwest 180 207 5,500  Level Orlando TRACON
Mon 07:43:21 AM 28.2833 -80.6833 344° North 182 209 5,500  Level Orlando TRACON
Mon 07:44:10 AM 28.3167 -80.7000 336° Northwest 183 211 5,500 -53 Level Orlando TRACON
Mon 07:45:15 AM 28.3833 -80.7167 348° North 186 214 5,400  Descending Orlando TRACON
Mon 07:46:16 AM 28.4333 -80.7333 344° North 182 209 5,500 -47 Climbing Orlando TRACON
Mon 07:47:22 AM 28.4667 -80.7667 319° Northwest 183 211 5,300 -100 Descending Orlando TRACON
Mon 07:48:16 AM 28.5167 -80.7833 344° North 192 221 5,300 -100 Level Orlando TRACON
Mon 07:49:22 AM 28.5833 -80.8000 348° North 193 222 5,100 -200 Descending Orlando TRACON
Mon 07:50:16 AM 28.6333 -80.8000 360° North 204 235 4,900 -316 Descending Orlando TRACON
Mon 07:51:16 AM 28.6833 -80.8167 344° North 205 236 4,500 -188 Descending Orlando TRACON
Mon 07:52:56 AM 28.7783 -80.8342 351° North 199 229 4,400 -112 Descending Jacksonville Center
Mon 07:53:57 AM 28.8325 -80.8403 354° North 200 230 4,200 -298 Descending Jacksonville Center
Mon 07:54:57 AM 28.8892 -80.8483 353° North 206 237 3,800 -397 Descending Jacksonville Center
Mon 07:55:58 AM 28.9456 -80.8614 349° North 204 235 3,400 -344 Descending Jacksonville Center
Mon 07:56:59 AM 29.0000 -80.8722 350° North 205 236 3,100 -347 Descending Jacksonville Center
Mon 07:57:59 AM 29.0567 -80.8903 344° North 198 228 2,700 -397 Descending Jacksonville Center
Mon 07:59:00 AM 29.1133 -80.9103 343° North 203 234 2,300 -393 Descending Jacksonville Center
Mon 08:00:01 AM 29.1639 -80.9378 335° Northwest 207 238 1,900 -298 Descending Jacksonville Center
Mon 08:01:01 AM 29.2122 -80.9656 333° Northwest 193 222 1,700 -347 Descending Jacksonville Center
Mon 08:02:02 AM 29.2044 -80.9989 255° West 130 150 1,200 -492 Descending Jacksonville Center
Mon 08:03:03 AM 29.1925 -81.0278 245° Southwest 86 99 700 -492 Descending Jacksonville Center
Mon 08:05:00 AM 29.1667 -81.0500 297° West  Level FlightAware Approximate
Mon 08:12:00 AM 29.1799 -81.0581 297° West  Level Estimated
Mon 08:13:00 AM 29.1799 -81.0581 297° West  Level Estimated
Mon 08:14:00 AM 29.1799 -81.0581 297° West  Level Estimated
Mon 08:15:00 AM 29.1799 -81.0581 297° West  Level Estimated

Login

Don't have an account? Register now (free) for customized features, flight alerts, and more!